Elwha — WY3960 — position and weather

sailwx.info

Track history (hours):
 
Tides and Currents Weather Stations Pressure Air Temp Water Temp Dewpoint Dewpoint Depression Visibility Wind Speed Wind Dir Waves Ship Positions

Elwha

Owner: WASHINGTON, STATE OF; Dept. of Transportation, OLYMPIA, WA. More information available from US FCC via Universal Licensing System and Coast Guard Vessel Documentation Center.

Last reported at 2017-Oct-19 23:30 UTC. Time now 2017-Oct-19 23:55 UTC.
Position N 48°35' W 122°55'.

Length 116 m; draft 5.5 m.

Type: Passenger vessel. MMSI: 366773060.

Date/timePositionNaut miles runAvg speedWind from/ knotsBaromVisibWave heightAir tempDewpointWater temp
2017-Oct-19 23:30N 48°35' W 122°55'815.9
2017-Oct-19 23:00N 48°31' W 122°45'3 5.6
2017-Oct-19 22:30N 48°30' W 122°41'0 0.9
2017-Oct-19 22:00N 48°31' W 122°40'713.9
2017-Oct-19 21:30N 48°33' W 122°50'612.5
2017-Oct-19 21:00N 48°33' W 122°60'1 1.7
2017-Oct-19 20:30N 48°32' W 123°01'612.6
2017-Oct-19 20:00N 48°38' W 123°06'815.1
2017-Oct-19 19:30N 48°38' W 123°17'4 8.7
2017-Oct-19 19:00N 48°39' W 123°24'0 0.0
2017-Oct-19 18:30N 48°39' W 123°24'3 6.7
2017-Oct-19 18:00N 48°39' W 123°19'816.5
2017-Oct-19 17:30N 48°38' W 123°07'713.1
2017-Oct-19 17:00N 48°32' W 123°01'2 3.8
2017-Oct-19 16:30N 48°32' W 122°58'611.3
2017-Oct-19 16:00N 48°32' W 122°49'611.9
2017-Oct-19 15:30N 48°30' W 122°41'3 5.1
2017-Oct-19 15:00N 48°31' W 122°44'713.0
2017-Oct-19 14:31N 48°34' W 122°53'2 4.1
2017-Oct-19 14:00N 48°35' W 122°56'1 1.8
2017-Oct-19 13:31N 48°36' W 122°57'611.4
2017-Oct-19 13:00N 48°32' W 122°50'612.4
2017-Oct-19 12:30N 48°30' W 122°41'0 0.0
2017-Oct-19 11:52N 48°30' W 122°41'0 0.0
2017-Oct-19 11:29N 48°30' W 122°41'0 0.0
2017-Oct-19 10:50N 48°30' W 122°41'0 0.0
2017-Oct-19 10:29N 48°30' W 122°41'0 0.0
2017-Oct-19 09:55N 48°30' W 122°41'0 0.0
2017-Oct-19 09:30N 48°30' W 122°41'0 0.0
2017-Oct-19 08:51N 48°30' W 122°41'0 0.1
2017-Oct-19 08:30N 48°30' W 122°41'0 0.1
2017-Oct-19 07:58N 48°30' W 122°41'0 0.1
2017-Oct-19 07:22N 48°30' W 122°41'0 0.1
2017-Oct-19 06:53N 48°30' W 122°41'0 0.0
2017-Oct-19 06:29N 48°30' W 122°41'0 0.3
2017-Oct-19 05:55N 48°31' W 122°40'614.7
2017-Oct-19 05:30N 48°32' W 122°49'612.5
2017-Oct-19 05:00N 48°36' W 122°57'4 9.0
2017-Oct-19 04:30N 48°33' W 122°51'714.8
2017-Oct-19 04:00N 48°30' W 122°41'3 5.7
2017-Oct-19 03:30N 48°31' W 122°45'816.3
2017-Oct-19 03:00N 48°35' W 122°55'0 0.7
2017-Oct-19 02:30N 48°35' W 122°56'612.2
2017-Oct-19 02:00N 48°32' W 122°48'510.1
2017-Oct-19 01:30N 48°30' W 122°41'3 7.0
2017-Oct-19 01:00N 48°32' W 122°45'714.8
2017-Oct-19 00:30N 48°35' W 122°55'1 2.0
2017-Oct-19 00:00N 48°36' W 122°57'4 7.7
2017-Oct-18 23:30N 48°34' W 122°51'714.6
2017-Oct-18 23:00N 48°31' W 122°41'1 1.4
2017-Oct-18 22:30N 48°30' W 122°41'3 6.0
2017-Oct-18 22:01N 48°32' W 122°45'713.1
2017-Oct-18 21:30N 48°34' W 122°54'510.4
2017-Oct-18 21:00N 48°32' W 123°01'3 5.6
2017-Oct-18 20:30N 48°35' W 123°02'714.3
2017-Oct-18 20:00N 48°38' W 123°12'5 9.3
2017-Oct-18 19:31N 48°39' W 123°19'3 6.7
2017-Oct-18 19:00N 48°39' W 123°24'0 0.0
2017-Oct-18 18:30N 48°39' W 123°24'4 8.2
2017-Oct-18 18:00N 48°39' W 123°18'815.3
2017-Oct-18 17:30N 48°38' W 123°06'612.9
2017-Oct-18 17:01N 48°32' W 123°01'1 2.9
2017-Oct-18 16:30N 48°32' W 122°59'612.2
2017-Oct-18 16:00N 48°32' W 122°49'611.2
2017-Oct-18 15:28N 48°30' W 122°41'2 4.4
2017-Oct-18 15:00N 48°31' W 122°43'9 9.0
2017-Oct-18 14:00N 48°35' W 122°56'1 1.8
2017-Oct-18 13:30N 48°36' W 122°57'510.3
2017-Oct-18 13:00N 48°33' W 122°50'713.3
2017-Oct-18 12:30N 48°30' W 122°41'0 0.0
2017-Oct-18 11:25N 48°30' W 122°41'0 0.0
2017-Oct-18 10:55N 48°30' W 122°41'0 0.0
2017-Oct-18 10:29N 48°30' W 122°41'0 0.0
2017-Oct-18 10:00N 48°30' W 122°41'0 0.0
2017-Oct-18 09:30N 48°30' W 122°41'0 0.0
2017-Oct-18 09:00N 48°30' W 122°41'0 0.1
2017-Oct-18 08:29N 48°30' W 122°41'0 0.1
2017-Oct-18 08:00N 48°30' W 122°41'0 0.0
2017-Oct-18 07:30N 48°30' W 122°41'0 0.0
2017-Oct-18 07:00N 48°30' W 122°41'0 0.0
2017-Oct-18 06:30N 48°30' W 122°41'0 0.0
2017-Oct-18 06:00N 48°30' W 122°41'511.2
2017-Oct-18 05:30N 48°32' W 122°49'712.9
2017-Oct-18 04:59N 48°36' W 122°57'3 7.1
2017-Oct-18 04:30N 48°34' W 122°52'815.0
2017-Oct-18 04:00N 48°31' W 122°42'0 0.9
2017-Oct-18 03:31N 48°31' W 122°42'815.6
2017-Oct-18 03:01N 48°35' W 122°53'3 5.2
2017-Oct-18 02:30N 48°36' W 122°56'4 9.0
2017-Oct-18 02:00N 48°33' W 122°51'714.2
2017-Oct-18 01:30N 48°30' W 122°41'1 1.2
2017-Oct-18 01:00N 48°31' W 122°41'815.3
2017-Oct-18 00:30N 48°34' W 122°51'4 7.9
2017-Oct-18 00:00N 48°36' W 122°57'1 1.8
2017-Oct-17 23:30N 48°35' W 122°56'714.2
2017-Oct-17 23:00N 48°32' W 122°47'4 4.1
2017-Oct-17 22:01N 48°30' W 122°41'0 1.6
2017-Oct-17 22:00N 48°30' W 122°41'713.5
2017-Oct-17 21:30N 48°33' W 122°50'612.6
2017-Oct-17 21:00N 48°33' W 122°60'1 1.8
2017-Oct-17 20:30N 48°32' W 123°01'5 9.0
2017-Oct-17 20:00N 48°36' W 123°04'816.8
2017-Oct-17 19:31N 48°38' W 123°16'5 9.9
2017-Oct-17 19:00N 48°39' W 123°24'1 1.2
2017-Oct-17 18:30N 48°38' W 123°23'714.0
2017-Oct-17 18:01N 48°38' W 123°12'815.6
2017-Oct-17 17:31N 48°35' W 123°02'3 5.5
2017-Oct-17 17:00N 48°32' W 123°01'612.5
2017-Oct-17 16:31N 48°34' W 122°52'713.7
2017-Oct-17 16:00N 48°32' W 122°42'2 3.1
2017-Oct-17 15:28N 48°30' W 122°41'3 6.4
2017-Oct-17 15:01N 48°31' W 122°45'612.3
2017-Oct-17 14:31N 48°34' W 122°53'3 2.8
2017-Oct-17 13:30N 48°36' W 122°57'5 9.3
2017-Oct-17 13:00N 48°33' W 122°51'714.1
2017-Oct-17 12:29N 48°30' W 122°41'0 0.1
2017-Oct-17 11:59N 48°30' W 122°41'0 0.0
2017-Oct-17 11:28N 48°30' W 122°41'0 0.0
2017-Oct-17 11:00N 48°30' W 122°41'0 0.0
2017-Oct-17 10:12N 48°30' W 122°41'0 0.0
2017-Oct-17 09:58N 48°30' W 122°41'0 0.0
2017-Oct-17 09:15N 48°30' W 122°41'0 0.0
2017-Oct-17 08:58N 48°30' W 122°41'0 0.0
2017-Oct-17 07:48N 48°30' W 122°41'0 0.0
2017-Oct-17 07:24N 48°30' W 122°41'0 0.0
2017-Oct-17 06:58N 48°30' W 122°41'0 0.0
2017-Oct-17 06:30N 48°30' W 122°41'0 0.7
2017-Oct-17 06:00N 48°31' W 122°40'815.1
2017-Oct-17 05:31N 48°33' W 122°51'4 8.7
2017-Oct-17 05:00N 48°36' W 122°57'3 6.9
2017-Oct-17 04:30N 48°34' W 122°52'815.2
2017-Oct-17 04:00N 48°31' W 122°42'1 1.3
2017-Oct-17 03:30N 48°31' W 122°42'815.5
2017-Oct-17 03:00N 48°35' W 122°53'3 5.1
2017-Oct-17 02:30N 48°36' W 122°56'4 8.2
2017-Oct-17 02:01N 48°34' W 122°51'815.1
2017-Oct-17 01:30N 48°31' W 122°41'1 2.2
2017-Oct-17 01:00N 48°31' W 122°42'714.9
2017-Oct-17 00:30N 48°34' W 122°52'3 6.7
2017-Oct-17 00:00N 48°36' W 122°57'1 1.6
2017-Oct-16 23:30N 48°35' W 122°56'714.8
2017-Oct-16 23:00N 48°32' W 122°46'4 4.7
2017-Oct-16 22:13N 48°30' W 122°41'0 1.5
2017-Oct-16 22:00N 48°31' W 122°40'714.8
2017-Oct-16 21:30N 48°33' W 122°51'612.5
2017-Oct-16 21:00N 48°33' W 123°00'1 1.2
2017-Oct-16 20:31N 48°32' W 123°01'510.0
2017-Oct-16 20:00N 48°37' W 123°05'816.4
2017-Oct-16 19:30N 48°38' W 123°17'5 9.2
2017-Oct-16 19:00N 48°39' W 123°24'0 0.0
2017-Oct-16 18:30N 48°39' W 123°24'5 9.7
2017-Oct-16 18:00N 48°39' W 123°16'816.0
2017-Oct-16 17:30N 48°37' W 123°05'510.6
2017-Oct-16 17:00N 48°32' W 123°01'2 3.6
2017-Oct-16 16:31N 48°32' W 122°58'611.7
2017-Oct-16 16:01N 48°32' W 122°49'6 7.9
2017-Oct-16 15:15N 48°30' W 122°41'311.8
2017-Oct-16 15:00N 48°31' W 122°45'8 8.2
2017-Oct-16 14:00N 48°35' W 122°56'1 1.8
2017-Oct-16 13:30N 48°36' W 122°57'5 9.7
2017-Oct-16 13:00N 48°33' W 122°50'714.2
2017-Oct-16 12:31N 48°30' W 122°41'0 0.1
2017-Oct-16 11:52N 48°30' W 122°41'0 0.0
2017-Oct-16 11:24N 48°30' W 122°41'0 0.0
2017-Oct-16 10:59N 48°30' W 122°41'0 0.0
2017-Oct-16 10:30N 48°30' W 122°41'0 0.0
2017-Oct-16 10:00N 48°30' W 122°41'0 0.0
2017-Oct-16 09:30N 48°30' W 122°41'0 0.0
2017-Oct-16 09:00N 48°30' W 122°41'0 0.0
2017-Oct-16 08:30N 48°30' W 122°41'0 0.0
2017-Oct-16 07:49N 48°30' W 122°41'0 0.0
2017-Oct-16 07:29N 48°30' W 122°41'0 0.0
2017-Oct-16 06:55N 48°30' W 122°41'0 0.0
2017-Oct-16 06:29N 48°30' W 122°41'0 0.0
2017-Oct-16 05:55N 48°30' W 122°41'0 0.0
2017-Oct-16 05:20N 48°30' W 122°41'0 0.1
2017-Oct-16 04:55N 48°30' W 122°41'2 4.2
2017-Oct-16 04:30N 48°32' W 122°43'715.0
2017-Oct-16 04:01N 48°34' W 122°53'510.4
2017-Oct-16 03:31N 48°33' W 123°00'1 2.9
2017-Oct-16 03:00N 48°32' W 122°58'4 7.9
2017-Oct-16 02:30N 48°34' W 122°53'510.2
2017-Oct-16 02:00N 48°32' W 122°46'4 6.8
2017-Oct-16 01:25N 48°30' W 122°41'4 9.7
2017-Oct-16 01:00N 48°32' W 122°46'510.2
2017-Oct-16 00:30N 48°34' W 122°53'510.4
2017-Oct-16 00:01N 48°33' W 123°00'1 1.0
2017-Oct-15 23:30N 48°32' W 123°01'510.6
2017-Oct-15 23:00N 48°34' W 122°54'714.9
2017-Oct-15 22:30N 48°31' W 122°43'2 3.1
2017-Oct-15 21:52N 48°31' W 122°41'513.2
2017-Oct-15 21:30N 48°32' W 122°48'4 8.8
2017-Oct-15 21:00N 48°34' W 122°53'2 3.8
2017-Oct-15 20:30N 48°33' W 122°51'714.2
2017-Oct-15 20:00N 48°31' W 122°40'3 5.3
2017-Oct-15 19:30N 48°31' W 122°44'714.0
2017-Oct-15 19:00N 48°34' W 122°54'5 9.7
2017-Oct-15 18:30N 48°32' W 123°01'0 1.0
2017-Oct-15 18:01N 48°33' W 123°00'713.2
2017-Oct-15 17:30N 48°33' W 122°51'611.6
2017-Oct-15 17:00N 48°31' W 122°42'1 2.5
2017-Oct-15 16:28N 48°30' W 122°41'3 7.2
2017-Oct-15 16:01N 48°32' W 122°45'612.4
2017-Oct-15 15:31N 48°34' W 122°54'510.2
2017-Oct-15 15:00N 48°32' W 123°01'6 5.7
2017-Oct-15 14:00N 48°34' W 122°53'714.1
2017-Oct-15 13:31N 48°31' W 122°43'2 4.0
2017-Oct-15 13:00N 48°31' W 122°40'0 0.1
2017-Oct-15 10:54N 48°30' W 122°41'0 0.0
2017-Oct-15 10:24N 48°30' W 122°41'0 0.0
2017-Oct-15 09:46N 48°30' W 122°41'0 0.0
2017-Oct-15 09:21N 48°30' W 122°41'0 0.0
2017-Oct-15 08:51N 48°30' W 122°41'0 0.0
2017-Oct-15 08:27N 48°30' W 122°41'0 0.0
2017-Oct-15 07:58N 48°30' W 122°41'0 0.0
2017-Oct-15 07:30N 48°30' W 122°41'0 0.0
2017-Oct-15 07:00N 48°30' W 122°41'0 0.0
2017-Oct-15 06:28N 48°30' W 122°41'0 0.0
2017-Oct-15 06:00N 48°30' W 122°41'0 0.0
2017-Oct-15 05:30N 48°30' W 122°41'0 0.0
2017-Oct-15 04:18N 48°30' W 122°41'1 2.9
2017-Oct-15 04:00N 48°31' W 122°41'815.2
2017-Oct-15 03:31N 48°34' W 122°51'3 6.5
2017-Oct-15 03:01N 48°33' W 122°56'3 6.5
2017-Oct-15 02:30N 48°32' W 123°01'510.0
2017-Oct-15 02:00N 48°34' W 122°54'4 8.3
2017-Oct-15 01:31N 48°32' W 122°49'6 8.9
2017-Oct-15 00:53N 48°30' W 122°41'3 8.4
2017-Oct-15 00:31N 48°32' W 122°45'611.7
2017-Oct-15 00:00N 48°34' W 122°53'5 9.5
2017-Oct-14 23:30N 48°33' W 122°60'1 1.7
2017-Oct-14 23:00N 48°32' W 123°01'5 9.5
2017-Oct-14 22:31N 48°34' W 122°54'714.7
2017-Oct-14 22:01N 48°31' W 122°44'2 4.0
2017-Oct-14 21:24N 48°30' W 122°41'512.9
2017-Oct-14 21:01N 48°32' W 122°48'4 8.5
2017-Oct-14 20:30N 48°34' W 122°53'611.8
2017-Oct-14 20:01N 48°32' W 122°45'3 6.2
2017-Oct-14 19:30N 48°31' W 122°41'713.6
2017-Oct-14 19:00N 48°33' W 122°50'612.2
2017-Oct-14 18:30N 48°33' W 122°59'1 2.1
2017-Oct-14 18:00N 48°32' W 123°01'5 9.7
2017-Oct-14 17:30N 48°34' W 122°54'714.6
2017-Oct-14 17:00N 48°32' W 122°44'2 4.1
2017-Oct-14 16:25N 48°30' W 122°41'511.0
2017-Oct-14 16:00N 48°32' W 122°47'612.0
2017-Oct-14 15:30N 48°33' W 122°56'3 6.2
2017-Oct-14 15:00N 48°32' W 123°01'3 6.9
2017-Oct-14 14:31N 48°33' W 122°56'3 5.2
2017-Oct-14 14:00N 48°34' W 122°53'714.5
2017-Oct-14 13:30N 48°31' W 122°43'2 3.1
2017-Oct-14 13:00N 48°30' W 122°41'0 0.1
2017-Oct-14 12:30N 48°30' W 122°41'0 0.0
2017-Oct-14 11:55N 48°30' W 122°41'0 0.0
2017-Oct-14 11:22N 48°30' W 122°41'0 0.0
2017-Oct-14 11:00N 48°30' W 122°41'0 0.0
2017-Oct-14 10:29N 48°30' W 122°41'0 0.0
2017-Oct-14 06:59N 48°30' W 122°41'0 0.0
2017-Oct-14 04:48N 48°30' W 122°41'0 0.6
2017-Oct-14 04:31N 48°31' W 122°40'714.4
2017-Oct-14 04:00N 48°33' W 122°51'4 8.5
2017-Oct-14 03:30N 48°32' W 122°57'2 4.8
2017-Oct-14 03:00N 48°32' W 123°01'511.0
2017-Oct-14 02:30N 48°34' W 122°53'5 9.8
2017-Oct-14 02:00N 48°32' W 122°47'4 5.6
2017-Oct-14 01:15N 48°31' W 122°41'311.7
2017-Oct-14 01:00N 48°31' W 122°45'612.4
2017-Oct-14 00:30N 48°34' W 122°53'510.9
2017-Oct-14 00:00N 48°32' W 123°01'0 0.4
2017-Oct-13 23:30N 48°32' W 123°01'510.5
2017-Oct-13 23:00N 48°34' W 122°54'714.3
2017-Oct-13 22:30N 48°31' W 122°44'2 4.1
2017-Oct-13 21:58N 48°30' W 122°41'614.0
2017-Oct-13 21:30N 48°32' W 122°50'3 5.8
2017-Oct-13 21:00N 48°34' W 122°53'612.0
2017-Oct-13 20:30N 48°31' W 122°45'3 4.4
2017-Oct-13 19:48N 48°30' W 122°41'1 1.9
2017-Oct-13 19:30N 48°31' W 122°40'815.4
2017-Oct-13 19:01N 48°34' W 122°51'612.8
2017-Oct-13 18:30N 48°32' W 123°01'0 0.1
2017-Oct-13 18:00N 48°32' W 123°01'3 6.6
2017-Oct-13 17:30N 48°33' W 122°56'612.8
2017-Oct-13 17:00N 48°32' W 122°46'4 7.7
2017-Oct-13 16:28N 48°30' W 122°41'510.0
2017-Oct-13 16:01N 48°32' W 122°47'612.0
2017-Oct-13 15:30N 48°33' W 122°56'3 5.9
2017-Oct-13 15:00N 48°32' W 123°01'3 6.0
2017-Oct-13 14:30N 48°33' W 122°56'3 6.2
2017-Oct-13 14:01N 48°34' W 122°52'713.3
2017-Oct-13 13:30N 48°31' W 122°43'2 4.1
2017-Oct-13 13:00N 48°30' W 122°41'0 0.0
2017-Oct-13 09:20N 48°30' W 122°41'0 0.0
2017-Oct-13 08:59N 48°30' W 122°41'0 0.0
2017-Oct-13 08:22N 48°30' W 122°41'0 0.0
2017-Oct-13 07:58N 48°30' W 122°41'0 0.0
2017-Oct-13 07:29N 48°30' W 122°41'0 0.0
2017-Oct-13 06:44N 48°30' W 122°41'0 0.0
2017-Oct-13 06:28N 48°30' W 122°41'0 0.0
2017-Oct-13 05:58N 48°30' W 122°41'0 0.0
2017-Oct-13 04:35N 48°30' W 122°41'0 1.8
2017-Oct-13 04:30N 48°31' W 122°40'5 9.5
2017-Oct-13 04:00N 48°32' W 122°47'5 9.8
2017-Oct-13 03:30N 48°34' W 122°53'510.8
2017-Oct-13 03:00N 48°32' W 123°01'4 8.9
2017-Oct-13 02:30N 48°34' W 122°55'3 5.8
2017-Oct-13 02:01N 48°33' W 122°50'713.5
2017-Oct-13 01:29N 48°30' W 122°41'1 1.4
2017-Oct-13 01:01N 48°31' W 122°40'815.2
2017-Oct-13 00:30N 48°34' W 122°51'2 4.5
2017-Oct-13 00:00N 48°34' W 122°55'4 8.7
2017-Oct-12 23:30N 48°32' W 123°01'2 3.0
2017-Oct-12 23:00N 48°32' W 122°59'612.3
2017-Oct-12 22:30N 48°32' W 122°49'611.5
2017-Oct-12 21:59N 48°30' W 122°41'1 2.9
2017-Oct-12 21:30N 48°31' W 122°42'714.7
2017-Oct-12 21:00N 48°34' W 122°52'1 1.5
2017-Oct-12 20:30N 48°34' W 122°51'815.6
2017-Oct-12 20:01N 48°31' W 122°41'0 0.2
2017-Oct-12 19:31N 48°31' W 122°40'714.8
2017-Oct-12 19:01N 48°33' W 122°51'713.0
2017-Oct-12 18:30N 48°32' W 123°01'0 0.4
2017-Oct-12 18:00N 48°32' W 123°01'510.3
2017-Oct-12 17:30N 48°34' W 122°54'815.4
2017-Oct-12 17:00N 48°31' W 122°43'2 3.2
2017-Oct-12 16:28N 48°30' W 122°41'612.9
2017-Oct-12 16:00N 48°32' W 122°49'611.2
2017-Oct-12 15:31N 48°32' W 122°58'2 4.1
2017-Oct-12 15:00N 48°32' W 123°01'3 5.5
2017-Oct-12 14:31N 48°32' W 122°57'3 6.6
2017-Oct-12 14:00N 48°34' W 122°53'714.4
2017-Oct-12 13:30N 48°31' W 122°43'2 3.3
2017-Oct-12 12:59N 48°30' W 122°41'0 0.0
2017-Oct-12 12:08N 48°30' W 122°41'0 0.0
2017-Oct-12 07:31N 48°30' W 122°41'0 0.0
2017-Oct-12 07:12N 48°30' W 122°41'0 0.0
2017-Oct-12 06:58N 48°30' W 122°41'0 0.0
2017-Oct-12 06:30N 48°30' W 122°41'0 0.0
2017-Oct-12 05:59N 48°30' W 122°41'0 0.1
2017-Oct-12 04:14N 48°31' W 122°40'1 2.8
2017-Oct-12 04:00N 48°31' W 122°40'815.5
2017-Oct-12 03:30N 48°34' W 122°52'3 6.3
2017-Oct-12 03:00N 48°33' W 122°56'3 6.4
2017-Oct-12 02:30N 48°32' W 123°01'511.1
2017-Oct-12 02:00N 48°34' W 122°53'4 8.0
2017-Oct-12 01:31N 48°35' W 122°47'6 8.4
2017-Oct-12 00:44N 48°30' W 122°41'210.2
2017-Oct-12 00:31N 48°31' W 122°44'713.4
2017-Oct-12 00:00N 48°34' W 122°53'4 8.3
2017-Oct-11 23:30N 48°32' W 122°59'2 3.0
2017-Oct-11 23:00N 48°32' W 123°01'5 9.8
2017-Oct-11 22:31N 48°34' W 122°54'714.1
2017-Oct-11 22:00N 48°31' W 122°44'3 4.3
2017-Oct-11 21:24N 48°30' W 122°41'410.9
2017-Oct-11 21:00N 48°32' W 122°47'5 9.5
2017-Oct-11 20:30N 48°34' W 122°53'510.4
2017-Oct-11 20:01N 48°32' W 122°46'4 6.6
2017-Oct-11 19:25N 48°30' W 122°41'614.0
2017-Oct-11 19:01N 48°32' W 122°49'611.1
2017-Oct-11 18:30N 48°32' W 122°57'2 4.7
2017-Oct-11 18:00N 48°32' W 123°01'4 8.2
2017-Oct-11 17:30N 48°33' W 122°55'713.7
2017-Oct-11 17:00N 48°32' W 122°45'6 0.3
2017-Oct-11 00:00N 48°34' W 122°53'4 8.0
2017-Oct-10 23:30N 48°33' W 122°58'2 3.3
2017-Oct-10 23:00N 48°32' W 123°01'4 8.2
2017-Oct-10 22:30N 48°33' W 122°55'612.5
2017-Oct-10 22:00N 48°31' W 122°46'4 5.2
2017-Oct-10 21:18N 48°30' W 122°41'3 8.8
2017-Oct-10 21:00N 48°31' W 122°44'612.8
2017-Oct-10 20:30N 48°34' W 122°53'3 7.0
2017-Oct-10 20:01N 48°32' W 122°49'610.5
2017-Oct-10 19:28N 48°30' W 122°41'3 5.6
2017-Oct-10 19:00N 48°32' W 122°44'714.3
2017-Oct-10 18:30N 48°34' W 122°54'5 9.7
2017-Oct-10 18:00N 48°32' W 123°01'1 2.4
2017-Oct-10 17:31N 48°33' W 122°59'612.8
2017-Oct-10 17:01N 48°32' W 122°50'610.5
2017-Oct-10 16:25N 48°30' W 122°41'3 7.6
2017-Oct-10 16:00N 48°31' W 122°45'713.3
2017-Oct-10 15:30N 48°34' W 122°54'5 8.8
2017-Oct-10 15:00N 48°32' W 123°01'6 5.8
2017-Oct-10 14:00N 48°34' W 122°53'713.6
2017-Oct-10 13:30N 48°31' W 122°44'2 2.8
2017-Oct-10 12:45N 48°30' W 122°41'0 0.2
2017-Oct-10 12:29N 48°30' W 122°41'0 0.0
2017-Oct-10 12:00N 48°30' W 122°41'0 0.0
2017-Oct-10 11:11N 48°30' W 122°41'0 0.0
2017-Oct-10 11:00N 48°30' W 122°41'0 0.0
2017-Oct-10 10:26N 48°30' W 122°41'0 0.0
2017-Oct-10 10:01N 48°30' W 122°41'0 0.0
2017-Oct-10 09:31N 48°30' W 122°41'0 0.0
2017-Oct-10 09:00N 48°30' W 122°41'0 0.0
2017-Oct-10 08:30N 48°30' W 122°41'0 0.0
2017-Oct-10 08:00N 48°30' W 122°41'0 0.0
2017-Oct-10 07:30N 48°30' W 122°41'0 0.0
2017-Oct-10 07:00N 48°30' W 122°41'0 0.0
2017-Oct-10 06:30N 48°30' W 122°41'0 0.0
2017-Oct-10 06:00N 48°30' W 122°41'0 0.0
2017-Oct-10 05:30N 48°30' W 122°41'0 0.0
2017-Oct-10 04:30N 48°30' W 122°41'1 1.5
2017-Oct-10 04:00N 48°31' W 122°41'815.5
2017-Oct-10 03:31N 48°34' W 122°51'3 5.8
2017-Oct-10 03:01N 48°33' W 122°56'3 6.9
2017-Oct-10 02:30N 48°32' W 123°01'5 9.2
2017-Oct-10 02:00N 48°34' W 122°54'3 6.4
2017-Oct-10 01:30N 48°33' W 122°50'7 7.7
2017-Oct-10 00:40N 48°31' W 122°41'211.2
2017-Oct-10 00:30N 48°32' W 122°43'714.6
2017-Oct-10 00:01N 48°34' W 122°53'4 7.5
2017-Oct-09 23:30N 48°32' W 122°58'  
Track history (hours):
 
Tides and Currents Weather Stations Pressure Air Temp Water Temp Dewpoint Dewpoint Depression Visibility Wind Speed Wind Dir Waves Ship Positions

Elwha

Owner: WASHINGTON, STATE OF; Dept. of Transportation, OLYMPIA, WA. More information available from US FCC via Universal Licensing System and Coast Guard Vessel Documentation Center.

Last reported at 2017-Oct-19 23:30 UTC. Time now 2017-Oct-19 23:55 UTC.
Position N 48°35' W 122°55'.

Length 116 m; draft 5.5 m.

Type: Passenger vessel. MMSI: 366773060.

Date/timePositionNaut miles runAvg speedWind from/ knotsBaromVisibWave heightAir tempDewpointWater temp
2017-Oct-19 23:30N 48°35' W 122°55'815.9
2017-Oct-19 23:00N 48°31' W 122°45'3 5.6
2017-Oct-19 22:30N 48°30' W 122°41'0 0.9
2017-Oct-19 22:00N 48°31' W 122°40'713.9
2017-Oct-19 21:30N 48°33' W 122°50'612.5
2017-Oct-19 21:00N 48°33' W 122°60'1 1.7
2017-Oct-19 20:30N 48°32' W 123°01'612.6
2017-Oct-19 20:00N 48°38' W 123°06'815.1
2017-Oct-19 19:30N 48°38' W 123°17'4 8.7
2017-Oct-19 19:00N 48°39' W 123°24'0 0.0
2017-Oct-19 18:30N 48°39' W 123°24'3 6.7
2017-Oct-19 18:00N 48°39' W 123°19'816.5
2017-Oct-19 17:30N 48°38' W 123°07'713.1
2017-Oct-19 17:00N 48°32' W 123°01'2 3.8
2017-Oct-19 16:30N 48°32' W 122°58'611.3
2017-Oct-19 16:00N 48°32' W 122°49'611.9
2017-Oct-19 15:30N 48°30' W 122°41'3 5.1
2017-Oct-19 15:00N 48°31' W 122°44'713.0
2017-Oct-19 14:31N 48°34' W 122°53'2 4.1
2017-Oct-19 14:00N 48°35' W 122°56'1 1.8
2017-Oct-19 13:31N 48°36' W 122°57'611.4
2017-Oct-19 13:00N 48°32' W 122°50'612.4
2017-Oct-19 12:30N 48°30' W 122°41'0 0.0
2017-Oct-19 11:52N 48°30' W 122°41'0 0.0
2017-Oct-19 11:29N 48°30' W 122°41'0 0.0
2017-Oct-19 10:50N 48°30' W 122°41'0 0.0
2017-Oct-19 10:29N 48°30' W 122°41'0 0.0
2017-Oct-19 09:55N 48°30' W 122°41'0 0.0
2017-Oct-19 09:30N 48°30' W 122°41'0 0.0
2017-Oct-19 08:51N 48°30' W 122°41'0 0.1
2017-Oct-19 08:30N 48°30' W 122°41'0 0.1
2017-Oct-19 07:58N 48°30' W 122°41'0 0.1
2017-Oct-19 07:22N 48°30' W 122°41'0 0.1
2017-Oct-19 06:53N 48°30' W 122°41'0 0.0
2017-Oct-19 06:29N 48°30' W 122°41'0 0.3
2017-Oct-19 05:55N 48°31' W 122°40'614.7
2017-Oct-19 05:30N 48°32' W 122°49'612.5
2017-Oct-19 05:00N 48°36' W 122°57'4 9.0
2017-Oct-19 04:30N 48°33' W 122°51'714.8
2017-Oct-19 04:00N 48°30' W 122°41'3 5.7
2017-Oct-19 03:30N 48°31' W 122°45'816.3
2017-Oct-19 03:00N 48°35' W 122°55'0 0.7
2017-Oct-19 02:30N 48°35' W 122°56'612.2
2017-Oct-19 02:00N 48°32' W 122°48'510.1
2017-Oct-19 01:30N 48°30' W 122°41'3 7.0
2017-Oct-19 01:00N 48°32' W 122°45'714.8
2017-Oct-19 00:30N 48°35' W 122°55'1 2.0
2017-Oct-19 00:00N 48°36' W 122°57'4 7.7
2017-Oct-18 23:30N 48°34' W 122°51'714.6
2017-Oct-18 23:00N 48°31' W 122°41'1 1.4
2017-Oct-18 22:30N 48°30' W 122°41'3 6.0
2017-Oct-18 22:01N 48°32' W 122°45'713.1
2017-Oct-18 21:30N 48°34' W 122°54'510.4
2017-Oct-18 21:00N 48°32' W 123°01'3 5.6
2017-Oct-18 20:30N 48°35' W 123°02'714.3
2017-Oct-18 20:00N 48°38' W 123°12'5 9.3
2017-Oct-18 19:31N 48°39' W 123°19'3 6.7
2017-Oct-18 19:00N 48°39' W 123°24'0 0.0
2017-Oct-18 18:30N 48°39' W 123°24'4 8.2
2017-Oct-18 18:00N 48°39' W 123°18'815.3
2017-Oct-18 17:30N 48°38' W 123°06'612.9
2017-Oct-18 17:01N 48°32' W 123°01'1 2.9
2017-Oct-18 16:30N 48°32' W 122°59'612.2
2017-Oct-18 16:00N 48°32' W 122°49'611.2
2017-Oct-18 15:28N 48°30' W 122°41'2 4.4
2017-Oct-18 15:00N 48°31' W 122°43'9 9.0
2017-Oct-18 14:00N 48°35' W 122°56'1 1.8
2017-Oct-18 13:30N 48°36' W 122°57'510.3
2017-Oct-18 13:00N 48°33' W 122°50'713.3
2017-Oct-18 12:30N 48°30' W 122°41'0 0.0
2017-Oct-18 11:25N 48°30' W 122°41'0 0.0
2017-Oct-18 10:55N 48°30' W 122°41'0 0.0
2017-Oct-18 10:29N 48°30' W 122°41'0 0.0
2017-Oct-18 10:00N 48°30' W 122°41'0 0.0
2017-Oct-18 09:30N 48°30' W 122°41'0 0.0
2017-Oct-18 09:00N 48°30' W 122°41'0 0.1
2017-Oct-18 08:29N 48°30' W 122°41'0 0.1
2017-Oct-18 08:00N 48°30' W 122°41'0 0.0
2017-Oct-18 07:30N 48°30' W 122°41'0 0.0
2017-Oct-18 07:00N 48°30' W 122°41'0 0.0
2017-Oct-18 06:30N 48°30' W 122°41'0 0.0
2017-Oct-18 06:00N 48°30' W 122°41'511.2
2017-Oct-18 05:30N 48°32' W 122°49'712.9
2017-Oct-18 04:59N 48°36' W 122°57'3 7.1
2017-Oct-18 04:30N 48°34' W 122°52'815.0
2017-Oct-18 04:00N 48°31' W 122°42'0 0.9
2017-Oct-18 03:31N 48°31' W 122°42'815.6
2017-Oct-18 03:01N 48°35' W 122°53'3 5.2
2017-Oct-18 02:30N 48°36' W 122°56'4 9.0
2017-Oct-18 02:00N 48°33' W 122°51'714.2
2017-Oct-18 01:30N 48°30' W 122°41'1 1.2
2017-Oct-18 01:00N 48°31' W 122°41'815.3
2017-Oct-18 00:30N 48°34' W 122°51'4 7.9
2017-Oct-18 00:00N 48°36' W 122°57'1 1.8
2017-Oct-17 23:30N 48°35' W 122°56'714.2
2017-Oct-17 23:00N 48°32' W 122°47'4 4.1
2017-Oct-17 22:01N 48°30' W 122°41'0 1.6
2017-Oct-17 22:00N 48°30' W 122°41'713.5
2017-Oct-17 21:30N 48°33' W 122°50'612.6
2017-Oct-17 21:00N 48°33' W 122°60'1 1.8
2017-Oct-17 20:30N 48°32' W 123°01'5 9.0
2017-Oct-17 20:00N 48°36' W 123°04'816.8
2017-Oct-17 19:31N 48°38' W 123°16'5 9.9
2017-Oct-17 19:00N 48°39' W 123°24'1 1.2
2017-Oct-17 18:30N 48°38' W 123°23'714.0
2017-Oct-17 18:01N 48°38' W 123°12'815.6
2017-Oct-17 17:31N 48°35' W 123°02'3 5.5
2017-Oct-17 17:00N 48°32' W 123°01'612.5
2017-Oct-17 16:31N 48°34' W 122°52'713.7
2017-Oct-17 16:00N 48°32' W 122°42'2 3.1
2017-Oct-17 15:28N 48°30' W 122°41'3 6.4
2017-Oct-17 15:01N 48°31' W 122°45'612.3
2017-Oct-17 14:31N 48°34' W 122°53'3 2.8
2017-Oct-17 13:30N 48°36' W 122°57'5 9.3
2017-Oct-17 13:00N 48°33' W 122°51'714.1
2017-Oct-17 12:29N 48°30' W 122°41'0 0.1
2017-Oct-17 11:59N 48°30' W 122°41'0 0.0
2017-Oct-17 11:28N 48°30' W 122°41'0 0.0
2017-Oct-17 11:00N 48°30' W 122°41'0 0.0
2017-Oct-17 10:12N 48°30' W 122°41'0 0.0
2017-Oct-17 09:58N 48°30' W 122°41'0 0.0
2017-Oct-17 09:15N 48°30' W 122°41'0 0.0
2017-Oct-17 08:58N 48°30' W 122°41'0 0.0
2017-Oct-17 07:48N 48°30' W 122°41'0 0.0
2017-Oct-17 07:24N 48°30' W 122°41'0 0.0
2017-Oct-17 06:58N 48°30' W 122°41'0 0.0
2017-Oct-17 06:30N 48°30' W 122°41'0 0.7
2017-Oct-17 06:00N 48°31' W 122°40'815.1
2017-Oct-17 05:31N 48°33' W 122°51'4 8.7
2017-Oct-17 05:00N 48°36' W 122°57'3 6.9
2017-Oct-17 04:30N 48°34' W 122°52'815.2
2017-Oct-17 04:00N 48°31' W 122°42'1 1.3
2017-Oct-17 03:30N 48°31' W 122°42'815.5
2017-Oct-17 03:00N 48°35' W 122°53'3 5.1
2017-Oct-17 02:30N 48°36' W 122°56'4 8.2
2017-Oct-17 02:01N 48°34' W 122°51'815.1
2017-Oct-17 01:30N 48°31' W 122°41'1 2.2
2017-Oct-17 01:00N 48°31' W 122°42'714.9
2017-Oct-17 00:30N 48°34' W 122°52'3 6.7
2017-Oct-17 00:00N 48°36' W 122°57'1 1.6
2017-Oct-16 23:30N 48°35' W 122°56'714.8
2017-Oct-16 23:00N 48°32' W 122°46'4 4.7
2017-Oct-16 22:13N 48°30' W 122°41'0 1.5
2017-Oct-16 22:00N 48°31' W 122°40'714.8
2017-Oct-16 21:30N 48°33' W 122°51'612.5
2017-Oct-16 21:00N 48°33' W 123°00'1 1.2
2017-Oct-16 20:31N 48°32' W 123°01'510.0
2017-Oct-16 20:00N 48°37' W 123°05'816.4
2017-Oct-16 19:30N 48°38' W 123°17'5 9.2
2017-Oct-16 19:00N 48°39' W 123°24'0 0.0
2017-Oct-16 18:30N 48°39' W 123°24'5 9.7
2017-Oct-16 18:00N 48°39' W 123°16'816.0
2017-Oct-16 17:30N 48°37' W 123°05'510.6
2017-Oct-16 17:00N 48°32' W 123°01'2 3.6
2017-Oct-16 16:31N 48°32' W 122°58'611.7
2017-Oct-16 16:01N 48°32' W 122°49'6 7.9
2017-Oct-16 15:15N 48°30' W 122°41'311.8
2017-Oct-16 15:00N 48°31' W 122°45'8 8.2
2017-Oct-16 14:00N 48°35' W 122°56'1 1.8
2017-Oct-16 13:30N 48°36' W 122°57'5 9.7
2017-Oct-16 13:00N 48°33' W 122°50'714.2
2017-Oct-16 12:31N 48°30' W 122°41'0 0.1
2017-Oct-16 11:52N 48°30' W 122°41'0 0.0
2017-Oct-16 11:24N 48°30' W 122°41'0 0.0
2017-Oct-16 10:59N 48°30' W 122°41'0 0.0
2017-Oct-16 10:30N 48°30' W 122°41'0 0.0
2017-Oct-16 10:00N 48°30' W 122°41'0 0.0
2017-Oct-16 09:30N 48°30' W 122°41'0 0.0
2017-Oct-16 09:00N 48°30' W 122°41'0 0.0
2017-Oct-16 08:30N 48°30' W 122°41'0 0.0
2017-Oct-16 07:49N 48°30' W 122°41'0 0.0
2017-Oct-16 07:29N 48°30' W 122°41'0 0.0
2017-Oct-16 06:55N 48°30' W 122°41'0 0.0
2017-Oct-16 06:29N 48°30' W 122°41'0 0.0
2017-Oct-16 05:55N 48°30' W 122°41'0 0.0
2017-Oct-16 05:20N 48°30' W 122°41'0 0.1
2017-Oct-16 04:55N 48°30' W 122°41'2 4.2
2017-Oct-16 04:30N 48°32' W 122°43'715.0
2017-Oct-16 04:01N 48°34' W 122°53'510.4
2017-Oct-16 03:31N 48°33' W 123°00'1 2.9
2017-Oct-16 03:00N 48°32' W 122°58'4 7.9
2017-Oct-16 02:30N 48°34' W 122°53'510.2
2017-Oct-16 02:00N 48°32' W 122°46'4 6.8
2017-Oct-16 01:25N 48°30' W 122°41'4 9.7
2017-Oct-16 01:00N 48°32' W 122°46'510.2
2017-Oct-16 00:30N 48°34' W 122°53'510.4
2017-Oct-16 00:01N 48°33' W 123°00'1 1.0
2017-Oct-15 23:30N 48°32' W 123°01'510.6
2017-Oct-15 23:00N 48°34' W 122°54'714.9
2017-Oct-15 22:30N 48°31' W 122°43'2 3.1
2017-Oct-15 21:52N 48°31' W 122°41'513.2
2017-Oct-15 21:30N 48°32' W 122°48'4 8.8
2017-Oct-15 21:00N 48°34' W 122°53'2 3.8
2017-Oct-15 20:30N 48°33' W 122°51'714.2
2017-Oct-15 20:00N 48°31' W 122°40'3 5.3
2017-Oct-15 19:30N 48°31' W 122°44'714.0
2017-Oct-15 19:00N 48°34' W 122°54'5 9.7
2017-Oct-15 18:30N 48°32' W 123°01'0 1.0
2017-Oct-15 18:01N 48°33' W 123°00'713.2
2017-Oct-15 17:30N 48°33' W 122°51'611.6
2017-Oct-15 17:00N 48°31' W 122°42'1 2.5
2017-Oct-15 16:28N 48°30' W 122°41'3 7.2
2017-Oct-15 16:01N 48°32' W 122°45'612.4
2017-Oct-15 15:31N 48°34' W 122°54'510.2
2017-Oct-15 15:00N 48°32' W 123°01'6 5.7
2017-Oct-15 14:00N 48°34' W 122°53'714.1
2017-Oct-15 13:31N 48°31' W 122°43'2 4.0
2017-Oct-15 13:00N 48°31' W 122°40'0 0.1
2017-Oct-15 10:54N 48°30' W 122°41'0 0.0
2017-Oct-15 10:24N 48°30' W 122°41'0 0.0
2017-Oct-15 09:46N 48°30' W 122°41'0 0.0
2017-Oct-15 09:21N 48°30' W 122°41'0 0.0
2017-Oct-15 08:51N 48°30' W 122°41'0 0.0
2017-Oct-15 08:27N 48°30' W 122°41'0 0.0
2017-Oct-15 07:58N 48°30' W 122°41'0 0.0
2017-Oct-15 07:30N 48°30' W 122°41'0 0.0
2017-Oct-15 07:00N 48°30' W 122°41'0 0.0
2017-Oct-15 06:28N 48°30' W 122°41'0 0.0
2017-Oct-15 06:00N 48°30' W 122°41'0 0.0
2017-Oct-15 05:30N 48°30' W 122°41'0 0.0
2017-Oct-15 04:18N 48°30' W 122°41'1 2.9
2017-Oct-15 04:00N 48°31' W 122°41'815.2
2017-Oct-15 03:31N 48°34' W 122°51'3 6.5
2017-Oct-15 03:01N 48°33' W 122°56'3 6.5
2017-Oct-15 02:30N 48°32' W 123°01'510.0
2017-Oct-15 02:00N 48°34' W 122°54'4 8.3
2017-Oct-15 01:31N 48°32' W 122°49'6 8.9
2017-Oct-15 00:53N 48°30' W 122°41'3 8.4
2017-Oct-15 00:31N 48°32' W 122°45'611.7
2017-Oct-15 00:00N 48°34' W 122°53'5 9.5
2017-Oct-14 23:30N 48°33' W 122°60'1 1.7
2017-Oct-14 23:00N 48°32' W 123°01'5 9.5
2017-Oct-14 22:31N 48°34' W 122°54'714.7
2017-Oct-14 22:01N 48°31' W 122°44'2 4.0
2017-Oct-14 21:24N 48°30' W 122°41'512.9
2017-Oct-14 21:01N 48°32' W 122°48'4 8.5
2017-Oct-14 20:30N 48°34' W 122°53'611.8
2017-Oct-14 20:01N 48°32' W 122°45'3 6.2
2017-Oct-14 19:30N 48°31' W 122°41'713.6
2017-Oct-14 19:00N 48°33' W 122°50'612.2
2017-Oct-14 18:30N 48°33' W 122°59'1 2.1
2017-Oct-14 18:00N 48°32' W 123°01'5 9.7
2017-Oct-14 17:30N 48°34' W 122°54'714.6
2017-Oct-14 17:00N 48°32' W 122°44'2 4.1
2017-Oct-14 16:25N 48°30' W 122°41'511.0
2017-Oct-14 16:00N 48°32' W 122°47'612.0
2017-Oct-14 15:30N 48°33' W 122°56'3 6.2
2017-Oct-14 15:00N 48°32' W 123°01'3 6.9
2017-Oct-14 14:31N 48°33' W 122°56'3 5.2
2017-Oct-14 14:00N 48°34' W 122°53'714.5
2017-Oct-14 13:30N 48°31' W 122°43'2 3.1
2017-Oct-14 13:00N 48°30' W 122°41'0 0.1
2017-Oct-14 12:30N 48°30' W 122°41'0 0.0
2017-Oct-14 11:55N 48°30' W 122°41'0 0.0
2017-Oct-14 11:22N 48°30' W 122°41'0 0.0
2017-Oct-14 11:00N 48°30' W 122°41'0 0.0
2017-Oct-14 10:29N 48°30' W 122°41'0 0.0
2017-Oct-14 06:59N 48°30' W 122°41'0 0.0
2017-Oct-14 04:48N 48°30' W 122°41'0 0.6
2017-Oct-14 04:31N 48°31' W 122°40'714.4
2017-Oct-14 04:00N 48°33' W 122°51'4 8.5
2017-Oct-14 03:30N 48°32' W 122°57'2 4.8
2017-Oct-14 03:00N 48°32' W 123°01'511.0
2017-Oct-14 02:30N 48°34' W 122°53'5 9.8
2017-Oct-14 02:00N 48°32' W 122°47'4 5.6
2017-Oct-14 01:15N 48°31' W 122°41'311.7
2017-Oct-14 01:00N 48°31' W 122°45'612.4
2017-Oct-14 00:30N 48°34' W 122°53'510.9
2017-Oct-14 00:00N 48°32' W 123°01'0 0.4
2017-Oct-13 23:30N 48°32' W 123°01'510.5
2017-Oct-13 23:00N 48°34' W 122°54'714.3
2017-Oct-13 22:30N 48°31' W 122°44'2 4.1
2017-Oct-13 21:58N 48°30' W 122°41'614.0
2017-Oct-13 21:30N 48°32' W 122°50'3 5.8
2017-Oct-13 21:00N 48°34' W 122°53'612.0
2017-Oct-13 20:30N 48°31' W 122°45'3 4.4
2017-Oct-13 19:48N 48°30' W 122°41'1 1.9
2017-Oct-13 19:30N 48°31' W 122°40'815.4
2017-Oct-13 19:01N 48°34' W 122°51'612.8
2017-Oct-13 18:30N 48°32' W 123°01'0 0.1
2017-Oct-13 18:00N 48°32' W 123°01'3 6.6
2017-Oct-13 17:30N 48°33' W 122°56'612.8
2017-Oct-13 17:00N 48°32' W 122°46'4 7.7
2017-Oct-13 16:28N 48°30' W 122°41'510.0
2017-Oct-13 16:01N 48°32' W 122°47'612.0
2017-Oct-13 15:30N 48°33' W 122°56'3 5.9
2017-Oct-13 15:00N 48°32' W 123°01'3 6.0
2017-Oct-13 14:30N 48°33' W 122°56'3 6.2
2017-Oct-13 14:01N 48°34' W 122°52'713.3
2017-Oct-13 13:30N 48°31' W 122°43'2 4.1
2017-Oct-13 13:00N 48°30' W 122°41'0 0.0
2017-Oct-13 09:20N 48°30' W 122°41'0 0.0
2017-Oct-13 08:59N 48°30' W 122°41'0 0.0
2017-Oct-13 08:22N 48°30' W 122°41'0 0.0
2017-Oct-13 07:58N 48°30' W 122°41'0 0.0
2017-Oct-13 07:29N 48°30' W 122°41'0 0.0
2017-Oct-13 06:44N 48°30' W 122°41'0 0.0
2017-Oct-13 06:28N 48°30' W 122°41'0 0.0
2017-Oct-13 05:58N 48°30' W 122°41'0 0.0
2017-Oct-13 04:35N 48°30' W 122°41'0 1.8
2017-Oct-13 04:30N 48°31' W 122°40'5 9.5
2017-Oct-13 04:00N 48°32' W 122°47'5 9.8
2017-Oct-13 03:30N 48°34' W 122°53'510.8
2017-Oct-13 03:00N 48°32' W 123°01'4 8.9
2017-Oct-13 02:30N 48°34' W 122°55'3 5.8
2017-Oct-13 02:01N 48°33' W 122°50'713.5
2017-Oct-13 01:29N 48°30' W 122°41'1 1.4
2017-Oct-13 01:01N 48°31' W 122°40'815.2
2017-Oct-13 00:30N 48°34' W 122°51'2 4.5
2017-Oct-13 00:00N 48°34' W 122°55'4 8.7
2017-Oct-12 23:30N 48°32' W 123°01'2 3.0
2017-Oct-12 23:00N 48°32' W 122°59'612.3
2017-Oct-12 22:30N 48°32' W 122°49'611.5
2017-Oct-12 21:59N 48°30' W 122°41'1 2.9
2017-Oct-12 21:30N 48°31' W 122°42'714.7
2017-Oct-12 21:00N 48°34' W 122°52'1 1.5
2017-Oct-12 20:30N 48°34' W 122°51'815.6
2017-Oct-12 20:01N 48°31' W 122°41'0 0.2
2017-Oct-12 19:31N 48°31' W 122°40'714.8
2017-Oct-12 19:01N 48°33' W 122°51'713.0
2017-Oct-12 18:30N 48°32' W 123°01'0 0.4
2017-Oct-12 18:00N 48°32' W 123°01'510.3
2017-Oct-12 17:30N 48°34' W 122°54'815.4
2017-Oct-12 17:00N 48°31' W 122°43'2 3.2
2017-Oct-12 16:28N 48°30' W 122°41'612.9
2017-Oct-12 16:00N 48°32' W 122°49'611.2
2017-Oct-12 15:31N 48°32' W 122°58'2 4.1
2017-Oct-12 15:00N 48°32' W 123°01'3 5.5
2017-Oct-12 14:31N 48°32' W 122°57'3 6.6
2017-Oct-12 14:00N 48°34' W 122°53'714.4
2017-Oct-12 13:30N 48°31' W 122°43'2 3.3
2017-Oct-12 12:59N 48°30' W 122°41'0 0.0
2017-Oct-12 12:08N 48°30' W 122°41'0 0.0
2017-Oct-12 07:31N 48°30' W 122°41'0 0.0
2017-Oct-12 07:12N 48°30' W 122°41'0 0.0
2017-Oct-12 06:58N 48°30' W 122°41'0 0.0
2017-Oct-12 06:30N 48°30' W 122°41'0 0.0
2017-Oct-12 05:59N 48°30' W 122°41'0 0.1
2017-Oct-12 04:14N 48°31' W 122°40'1 2.8
2017-Oct-12 04:00N 48°31' W 122°40'815.5
2017-Oct-12 03:30N 48°34' W 122°52'3 6.3
2017-Oct-12 03:00N 48°33' W 122°56'3 6.4
2017-Oct-12 02:30N 48°32' W 123°01'511.1
2017-Oct-12 02:00N 48°34' W 122°53'4 8.0
2017-Oct-12 01:31N 48°35' W 122°47'6 8.4
2017-Oct-12 00:44N 48°30' W 122°41'210.2
2017-Oct-12 00:31N 48°31' W 122°44'713.4
2017-Oct-12 00:00N 48°34' W 122°53'4 8.3
2017-Oct-11 23:30N 48°32' W 122°59'2 3.0
2017-Oct-11 23:00N 48°32' W 123°01'5 9.8
2017-Oct-11 22:31N 48°34' W 122°54'714.1
2017-Oct-11 22:00N 48°31' W 122°44'3 4.3
2017-Oct-11 21:24N 48°30' W 122°41'410.9
2017-Oct-11 21:00N 48°32' W 122°47'5 9.5
2017-Oct-11 20:30N 48°34' W 122°53'510.4
2017-Oct-11 20:01N 48°32' W 122°46'4 6.6
2017-Oct-11 19:25N 48°30' W 122°41'614.0
2017-Oct-11 19:01N 48°32' W 122°49'611.1
2017-Oct-11 18:30N 48°32' W 122°57'2 4.7
2017-Oct-11 18:00N 48°32' W 123°01'4 8.2
2017-Oct-11 17:30N 48°33' W 122°55'713.7
2017-Oct-11 17:00N 48°32' W 122°45'6 0.3
2017-Oct-11 00:00N 48°34' W 122°53'4 8.0
2017-Oct-10 23:30N 48°33' W 122°58'2 3.3
2017-Oct-10 23:00N 48°32' W 123°01'4 8.2
2017-Oct-10 22:30N 48°33' W 122°55'612.5
2017-Oct-10 22:00N 48°31' W 122°46'4 5.2
2017-Oct-10 21:18N 48°30' W 122°41'3 8.8
2017-Oct-10 21:00N 48°31' W 122°44'612.8
2017-Oct-10 20:30N 48°34' W 122°53'3 7.0
2017-Oct-10 20:01N 48°32' W 122°49'610.5
2017-Oct-10 19:28N 48°30' W 122°41'3 5.6
2017-Oct-10 19:00N 48°32' W 122°44'714.3
2017-Oct-10 18:30N 48°34' W 122°54'5 9.7
2017-Oct-10 18:00N 48°32' W 123°01'1 2.4
2017-Oct-10 17:31N 48°33' W 122°59'612.8
2017-Oct-10 17:01N 48°32' W 122°50'610.5
2017-Oct-10 16:25N 48°30' W 122°41'3 7.6
2017-Oct-10 16:00N 48°31' W 122°45'713.3
2017-Oct-10 15:30N 48°34' W 122°54'5 8.8
2017-Oct-10 15:00N 48°32' W 123°01'6 5.8
2017-Oct-10 14:00N 48°34' W 122°53'713.6
2017-Oct-10 13:30N 48°31' W 122°44'2 2.8
2017-Oct-10 12:45N 48°30' W 122°41'0 0.2
2017-Oct-10 12:29N 48°30' W 122°41'0 0.0
2017-Oct-10 12:00N 48°30' W 122°41'0 0.0
2017-Oct-10 11:11N 48°30' W 122°41'0 0.0
2017-Oct-10 11:00N 48°30' W 122°41'0 0.0
2017-Oct-10 10:26N 48°30' W 122°41'0 0.0
2017-Oct-10 10:01N 48°30' W 122°41'0 0.0
2017-Oct-10 09:31N 48°30' W 122°41'0 0.0
2017-Oct-10 09:00N 48°30' W 122°41'0 0.0
2017-Oct-10 08:30N 48°30' W 122°41'0 0.0
2017-Oct-10 08:00N 48°30' W 122°41'0 0.0
2017-Oct-10 07:30N 48°30' W 122°41'0 0.0
2017-Oct-10 07:00N 48°30' W 122°41'0 0.0
2017-Oct-10 06:30N 48°30' W 122°41'0 0.0
2017-Oct-10 06:00N 48°30' W 122°41'0 0.0
2017-Oct-10 05:30N 48°30' W 122°41'0 0.0
2017-Oct-10 04:30N 48°30' W 122°41'1 1.5
2017-Oct-10 04:00N 48°31' W 122°41'815.5
2017-Oct-10 03:31N 48°34' W 122°51'3 5.8
2017-Oct-10 03:01N 48°33' W 122°56'3 6.9
2017-Oct-10 02:30N 48°32' W 123°01'5 9.2
2017-Oct-10 02:00N 48°34' W 122°54'3 6.4
2017-Oct-10 01:30N 48°33' W 122°50'7 7.7
2017-Oct-10 00:40N 48°31' W 122°41'211.2
2017-Oct-10 00:30N 48°32' W 122°43'714.6
2017-Oct-10 00:01N 48°34' W 122°53'4 7.5
2017-Oct-09 23:30N 48°32' W 122°58'  

Dump ship's entire track history